sensor_id;sensor_type;location;lat;lon;timestamp;P1;durP1;ratioP1;P2;durP2;ratioP2
40122;SDS011;25832;45.490;4.912;2023-02-15T00:01:45;31.08;;;18.52;;
40122;SDS011;25832;45.490;4.912;2023-02-15T00:04:14;41.25;;;19.55;;
40122;SDS011;25832;45.490;4.912;2023-02-15T00:06:42;31.55;;;18.60;;
40122;SDS011;25832;45.490;4.912;2023-02-15T00:09:08;33.47;;;18.83;;
40122;SDS011;25832;45.490;4.912;2023-02-15T00:11:35;34.33;;;20.15;;
40122;SDS011;25832;45.490;4.912;2023-02-15T00:14:30;36.03;;;20.35;;
40122;SDS011;25832;45.490;4.912;2023-02-15T00:16:55;31.30;;;18.92;;
40122;SDS011;25832;45.490;4.912;2023-02-15T00:19:24;34.15;;;21.23;;
40122;SDS011;25832;45.490;4.912;2023-02-15T00:21:50;32.15;;;19.67;;
40122;SDS011;25832;45.490;4.912;2023-02-15T00:24:16;36.38;;;19.83;;
40122;SDS011;25832;45.490;4.912;2023-02-15T00:26:44;30.55;;;18.88;;
40122;SDS011;25832;45.490;4.912;2023-02-15T00:29:11;38.22;;;20.90;;
40122;SDS011;25832;45.490;4.912;2023-02-15T00:31:37;37.53;;;21.30;;
40122;SDS011;25832;45.490;4.912;2023-02-15T00:34:07;38.53;;;22.42;;
40122;SDS011;25832;45.490;4.912;2023-02-15T00:36:38;40.35;;;21.83;;
40122;SDS011;25832;45.490;4.912;2023-02-15T00:39:04;36.60;;;21.90;;
40122;SDS011;25832;45.490;4.912;2023-02-15T00:41:30;43.45;;;20.77;;
40122;SDS011;25832;45.490;4.912;2023-02-15T00:43:57;36.97;;;21.05;;
40122;SDS011;25832;45.490;4.912;2023-02-15T00:46:22;39.42;;;21.52;;
40122;SDS011;25832;45.490;4.912;2023-02-15T00:48:48;39.45;;;22.30;;
40122;SDS011;25832;45.490;4.912;2023-02-15T00:51:14;38.25;;;22.80;;
40122;SDS011;25832;45.490;4.912;2023-02-15T00:53:40;38.30;;;22.75;;
40122;SDS011;25832;45.490;4.912;2023-02-15T00:56:06;38.90;;;21.65;;
40122;SDS011;25832;45.490;4.912;2023-02-15T00:58:31;35.65;;;20.98;;
40122;SDS011;25832;45.490;4.912;2023-02-15T01:01:02;34.42;;;20.65;;
40122;SDS011;25832;45.490;4.912;2023-02-15T01:03:33;38.38;;;21.75;;
40122;SDS011;25832;45.490;4.912;2023-02-15T01:05:59;33.65;;;20.80;;
40122;SDS011;25832;45.490;4.912;2023-02-15T01:08:25;38.58;;;20.10;;
40122;SDS011;25832;45.490;4.912;2023-02-15T01:10:51;39.65;;;22.63;;
40122;SDS011;25832;45.490;4.912;2023-02-15T01:13:16;39.00;;;22.00;;
40122;SDS011;25832;45.490;4.912;2023-02-15T01:15:43;34.30;;;20.50;;
40122;SDS011;25832;45.490;4.912;2023-02-15T01:18:09;36.53;;;20.48;;
40122;SDS011;25832;45.490;4.912;2023-02-15T01:20:36;36.83;;;21.63;;
40122;SDS011;25832;45.490;4.912;2023-02-15T01:23:04;40.25;;;22.73;;
40122;SDS011;25832;45.490;4.912;2023-02-15T01:25:32;34.28;;;20.92;;
40122;SDS011;25832;45.490;4.912;2023-02-15T01:27:59;35.63;;;20.70;;
40122;SDS011;25832;45.490;4.912;2023-02-15T01:30:25;39.25;;;22.55;;
40122;SDS011;25832;45.490;4.912;2023-02-15T01:32:51;38.85;;;21.95;;
40122;SDS011;25832;45.490;4.912;2023-02-15T01:35:16;33.65;;;20.05;;
40122;SDS011;25832;45.490;4.912;2023-02-15T01:37:42;40.65;;;22.55;;
40122;SDS011;25832;45.490;4.912;2023-02-15T01:40:10;39.22;;;21.05;;
40122;SDS011;25832;45.490;4.912;2023-02-15T01:42:38;39.00;;;22.77;;
40122;SDS011;25832;45.490;4.912;2023-02-15T01:45:06;38.55;;;22.02;;
40122;SDS011;25832;45.490;4.912;2023-02-15T01:52:59;43.47;;;23.70;;
40122;SDS011;25832;45.490;4.912;2023-02-15T01:55:37;40.83;;;23.40;;
40122;SDS011;25832;45.490;4.912;2023-02-15T01:58:07;50.42;;;25.75;;
40122;SDS011;25832;45.490;4.912;2023-02-15T02:00:34;47.58;;;25.73;;
40122;SDS011;25832;45.490;4.912;2023-02-15T02:03:00;46.55;;;25.10;;
40122;SDS011;25832;45.490;4.912;2023-02-15T02:05:26;47.38;;;26.52;;
40122;SDS011;25832;45.490;4.912;2023-02-15T02:07:54;40.90;;;23.25;;
40122;SDS011;25832;45.490;4.912;2023-02-15T02:10:23;46.47;;;28.15;;
40122;SDS011;25832;45.490;4.912;2023-02-15T02:12:56;50.38;;;25.50;;
40122;SDS011;25832;45.490;4.912;2023-02-15T02:18:41;46.97;;;26.35;;
40122;SDS011;25832;45.490;4.912;2023-02-15T02:30:33;39.95;;;25.02;;
40122;SDS011;25832;45.490;4.912;2023-02-15T02:41:07;47.88;;;28.38;;
40122;SDS011;25832;45.490;4.912;2023-02-15T02:43:38;40.90;;;24.63;;
40122;SDS011;25832;45.490;4.912;2023-02-15T02:46:20;49.90;;;25.08;;
40122;SDS011;25832;45.490;4.912;2023-02-15T02:48:51;43.13;;;24.58;;
40122;SDS011;25832;45.490;4.912;2023-02-15T02:51:18;44.08;;;25.75;;
40122;SDS011;25832;45.490;4.912;2023-02-15T02:53:51;52.72;;;28.85;;
40122;SDS011;25832;45.490;4.912;2023-02-15T02:56:27;47.00;;;27.67;;
40122;SDS011;25832;45.490;4.912;2023-02-15T02:58:56;47.78;;;26.42;;
40122;SDS011;25832;45.490;4.912;2023-02-15T03:01:29;46.35;;;25.58;;
40122;SDS011;25832;45.490;4.912;2023-02-15T03:04:00;47.15;;;27.27;;
40122;SDS011;25832;45.490;4.912;2023-02-15T03:09:12;49.30;;;27.40;;
40122;SDS011;25832;45.490;4.912;2023-02-15T03:11:59;49.50;;;27.70;;
40122;SDS011;25832;45.490;4.912;2023-02-15T03:14:28;53.08;;;27.02;;
40122;SDS011;25832;45.490;4.912;2023-02-15T03:16:54;53.03;;;28.35;;
40122;SDS011;25832;45.490;4.912;2023-02-15T03:19:22;49.72;;;28.90;;
40122;SDS011;25832;45.490;4.912;2023-02-15T03:21:54;51.25;;;28.40;;
40122;SDS011;25832;45.490;4.912;2023-02-15T03:24:32;58.10;;;31.17;;
40122;SDS011;25832;45.490;4.912;2023-02-15T03:27:04;62.42;;;31.40;;
40122;SDS011;25832;45.490;4.912;2023-02-15T03:29:35;58.08;;;31.92;;
40122;SDS011;25832;45.490;4.912;2023-02-15T03:32:03;56.53;;;30.50;;
40122;SDS011;25832;45.490;4.912;2023-02-15T03:34:34;50.72;;;30.92;;
40122;SDS011;25832;45.490;4.912;2023-02-15T03:37:10;54.92;;;29.52;;
40122;SDS011;25832;45.490;4.912;2023-02-15T03:42:31;49.55;;;27.60;;
40122;SDS011;25832;45.490;4.912;2023-02-15T03:47:46;58.60;;;31.55;;
40122;SDS011;25832;45.490;4.912;2023-02-15T03:52:59;67.78;;;36.72;;
40122;SDS011;25832;45.490;4.912;2023-02-15T03:55:28;78.47;;;36.30;;
40122;SDS011;25832;45.490;4.912;2023-02-15T03:57:54;81.05;;;39.13;;
40122;SDS011;25832;45.490;4.912;2023-02-15T04:00:40;90.35;;;42.33;;
40122;SDS011;25832;45.490;4.912;2023-02-15T04:03:55;85.65;;;40.88;;
40122;SDS011;25832;45.490;4.912;2023-02-15T04:06:24;82.03;;;40.85;;
40122;SDS011;25832;45.490;4.912;2023-02-15T04:08:50;87.57;;;41.30;;
40122;SDS011;25832;45.490;4.912;2023-02-15T04:11:34;91.50;;;42.47;;
40122;SDS011;25832;45.490;4.912;2023-02-15T04:14:00;90.93;;;46.22;;
40122;SDS011;25832;45.490;4.912;2023-02-15T04:16:45;90.32;;;44.50;;
40122;SDS011;25832;45.490;4.912;2023-02-15T04:19:11;91.07;;;43.40;;
40122;SDS011;25832;45.490;4.912;2023-02-15T04:21:55;79.32;;;42.30;;
40122;SDS011;25832;45.490;4.912;2023-02-15T04:24:40;78.45;;;38.85;;
40122;SDS011;25832;45.490;4.912;2023-02-15T04:27:24;74.90;;;40.08;;
40122;SDS011;25832;45.490;4.912;2023-02-15T04:29:50;81.82;;;42.17;;
40122;SDS011;25832;45.490;4.912;2023-02-15T04:32:15;76.70;;;41.42;;
40122;SDS011;25832;45.490;4.912;2023-02-15T04:34:41;75.25;;;38.95;;
40122;SDS011;25832;45.490;4.912;2023-02-15T04:37:06;77.38;;;41.05;;
40122;SDS011;25832;45.490;4.912;2023-02-15T04:39:32;86.32;;;43.63;;
40122;SDS011;25832;45.490;4.912;2023-02-15T04:41:58;79.72;;;42.13;;
40122;SDS011;25832;45.490;4.912;2023-02-15T04:44:23;79.93;;;39.25;;
40122;SDS011;25832;45.490;4.912;2023-02-15T04:46:49;76.22;;;39.42;;
40122;SDS011;25832;45.490;4.912;2023-02-15T04:49:15;85.03;;;41.85;;
40122;SDS011;25832;45.490;4.912;2023-02-15T04:51:40;82.18;;;41.55;;
40122;SDS011;25832;45.490;4.912;2023-02-15T04:54:06;76.72;;;38.72;;
40122;SDS011;25832;45.490;4.912;2023-02-15T04:56:32;72.28;;;41.33;;
40122;SDS011;25832;45.490;4.912;2023-02-15T04:58:59;77.68;;;40.83;;
40122;SDS011;25832;45.490;4.912;2023-02-15T05:01:25;80.30;;;41.47;;
40122;SDS011;25832;45.490;4.912;2023-02-15T05:03:51;74.80;;;38.75;;
40122;SDS011;25832;45.490;4.912;2023-02-15T05:06:17;76.05;;;39.72;;
40122;SDS011;25832;45.490;4.912;2023-02-15T05:08:43;78.88;;;39.85;;
40122;SDS011;25832;45.490;4.912;2023-02-15T05:11:08;80.30;;;40.35;;
40122;SDS011;25832;45.490;4.912;2023-02-15T05:13:34;78.50;;;39.28;;
40122;SDS011;25832;45.490;4.912;2023-02-15T05:16:00;80.07;;;41.33;;
40122;SDS011;25832;45.490;4.912;2023-02-15T05:18:25;83.28;;;43.17;;
40122;SDS011;25832;45.490;4.912;2023-02-15T05:20:51;88.20;;;42.97;;
40122;SDS011;25832;45.490;4.912;2023-02-15T05:23:16;84.07;;;44.05;;
40122;SDS011;25832;45.490;4.912;2023-02-15T05:25:46;85.65;;;41.72;;
40122;SDS011;25832;45.490;4.912;2023-02-15T05:28:31;88.78;;;45.58;;
40122;SDS011;25832;45.490;4.912;2023-02-15T05:33:40;93.50;;;44.85;;
40122;SDS011;25832;45.490;4.912;2023-02-15T05:36:06;91.07;;;46.55;;
40122;SDS011;25832;45.490;4.912;2023-02-15T05:38:32;86.18;;;46.88;;
40122;SDS011;25832;45.490;4.912;2023-02-15T05:40:59;90.75;;;46.25;;
40122;SDS011;25832;45.490;4.912;2023-02-15T05:43:25;86.00;;;44.40;;
40122;SDS011;25832;45.490;4.912;2023-02-15T05:45:51;86.90;;;44.95;;
40122;SDS011;25832;45.490;4.912;2023-02-15T05:48:18;86.57;;;43.80;;
40122;SDS011;25832;45.490;4.912;2023-02-15T05:50:45;79.60;;;42.92;;
40122;SDS011;25832;45.490;4.912;2023-02-15T05:53:11;82.32;;;43.33;;
40122;SDS011;25832;45.490;4.912;2023-02-15T05:55:40;79.38;;;42.88;;
40122;SDS011;25832;45.490;4.912;2023-02-15T05:58:06;85.97;;;44.25;;
40122;SDS011;25832;45.490;4.912;2023-02-15T06:00:33;84.22;;;41.75;;
40122;SDS011;25832;45.490;4.912;2023-02-15T06:02:59;80.15;;;41.55;;
40122;SDS011;25832;45.490;4.912;2023-02-15T06:05:25;81.05;;;42.17;;
40122;SDS011;25832;45.490;4.912;2023-02-15T06:07:50;75.25;;;39.30;;
40122;SDS011;25832;45.490;4.912;2023-02-15T06:10:16;86.93;;;44.13;;
40122;SDS011;25832;45.490;4.912;2023-02-15T06:12:43;76.63;;;41.15;;
40122;SDS011;25832;45.490;4.912;2023-02-15T06:15:09;90.18;;;42.35;;
40122;SDS011;25832;45.490;4.912;2023-02-15T06:17:35;76.90;;;41.03;;
40122;SDS011;25832;45.490;4.912;2023-02-15T06:20:01;74.45;;;38.83;;
40122;SDS011;25832;45.490;4.912;2023-02-15T06:22:27;72.25;;;41.75;;
40122;SDS011;25832;45.490;4.912;2023-02-15T06:24:53;75.70;;;39.50;;
40122;SDS011;25832;45.490;4.912;2023-02-15T06:27:19;82.13;;;41.15;;
40122;SDS011;25832;45.490;4.912;2023-02-15T06:29:44;80.95;;;41.58;;
40122;SDS011;25832;45.490;4.912;2023-02-15T06:32:10;76.65;;;41.05;;
40122;SDS011;25832;45.490;4.912;2023-02-15T06:34:36;72.75;;;39.40;;
40122;SDS011;25832;45.490;4.912;2023-02-15T06:37:01;79.45;;;41.92;;
40122;SDS011;25832;45.490;4.912;2023-02-15T06:39:27;80.88;;;40.95;;
40122;SDS011;25832;45.490;4.912;2023-02-15T06:41:53;73.13;;;38.50;;
40122;SDS011;25832;45.490;4.912;2023-02-15T06:44:18;79.10;;;40.03;;
40122;SDS011;25832;45.490;4.912;2023-02-15T06:46:44;77.57;;;39.88;;
40122;SDS011;25832;45.490;4.912;2023-02-15T06:49:09;79.50;;;40.90;;
40122;SDS011;25832;45.490;4.912;2023-02-15T06:51:35;82.35;;;41.63;;
40122;SDS011;25832;45.490;4.912;2023-02-15T06:54:01;78.40;;;41.60;;
40122;SDS011;25832;45.490;4.912;2023-02-15T06:56:26;83.22;;;40.22;;
40122;SDS011;25832;45.490;4.912;2023-02-15T06:58:52;81.88;;;41.30;;
40122;SDS011;25832;45.490;4.912;2023-02-15T07:01:18;87.50;;;40.63;;
40122;SDS011;25832;45.490;4.912;2023-02-15T07:03:44;72.70;;;37.38;;
40122;SDS011;25832;45.490;4.912;2023-02-15T07:06:10;75.20;;;37.60;;
40122;SDS011;25832;45.490;4.912;2023-02-15T07:08:36;78.32;;;41.63;;
40122;SDS011;25832;45.490;4.912;2023-02-15T07:11:03;69.82;;;37.22;;
40122;SDS011;25832;45.490;4.912;2023-02-15T07:13:48;69.70;;;35.63;;
40122;SDS011;25832;45.490;4.912;2023-02-15T07:16:14;77.10;;;38.90;;
40122;SDS011;25832;45.490;4.912;2023-02-15T07:18:40;79.38;;;38.03;;
40122;SDS011;25832;45.490;4.912;2023-02-15T07:21:05;72.10;;;36.22;;
40122;SDS011;25832;45.490;4.912;2023-02-15T07:23:35;74.85;;;38.03;;
40122;SDS011;25832;45.490;4.912;2023-02-15T07:26:02;79.05;;;39.45;;
40122;SDS011;25832;45.490;4.912;2023-02-15T07:28:29;80.82;;;38.95;;
40122;SDS011;25832;45.490;4.912;2023-02-15T07:30:55;67.70;;;34.88;;
40122;SDS011;25832;45.490;4.912;2023-02-15T07:33:22;74.65;;;37.70;;
40122;SDS011;25832;45.490;4.912;2023-02-15T07:35:55;80.72;;;39.13;;
40122;SDS011;25832;45.490;4.912;2023-02-15T07:38:23;78.35;;;39.42;;
40122;SDS011;25832;45.490;4.912;2023-02-15T07:41:00;65.13;;;35.15;;
40122;SDS011;25832;45.490;4.912;2023-02-15T07:43:29;77.85;;;37.42;;
40122;SDS011;25832;45.490;4.912;2023-02-15T07:46:02;62.50;;;34.53;;
40122;SDS011;25832;45.490;4.912;2023-02-15T07:48:29;61.53;;;33.03;;
40122;SDS011;25832;45.490;4.912;2023-02-15T07:50:58;66.35;;;33.05;;
40122;SDS011;25832;45.490;4.912;2023-02-15T07:53:25;58.08;;;29.75;;
40122;SDS011;25832;45.490;4.912;2023-02-15T07:55:51;61.22;;;32.72;;
40122;SDS011;25832;45.490;4.912;2023-02-15T07:58:17;57.08;;;31.83;;
40122;SDS011;25832;45.490;4.912;2023-02-15T08:00:43;52.63;;;28.83;;
40122;SDS011;25832;45.490;4.912;2023-02-15T08:03:24;58.17;;;32.10;;
40122;SDS011;25832;45.490;4.912;2023-02-15T08:05:57;62.08;;;30.73;;
40122;SDS011;25832;45.490;4.912;2023-02-15T08:08:24;56.38;;;31.58;;
40122;SDS011;25832;45.490;4.912;2023-02-15T08:11:09;59.28;;;31.20;;
40122;SDS011;25832;45.490;4.912;2023-02-15T08:19:12;52.30;;;29.20;;
40122;SDS011;25832;45.490;4.912;2023-02-15T08:21:45;53.67;;;30.40;;
40122;SDS011;25832;45.490;4.912;2023-02-15T08:24:17;56.47;;;31.13;;
40122;SDS011;25832;45.490;4.912;2023-02-15T08:26:44;51.35;;;30.13;;
40122;SDS011;25832;45.490;4.912;2023-02-15T08:29:11;55.75;;;29.90;;
40122;SDS011;25832;45.490;4.912;2023-02-15T08:31:38;51.58;;;30.27;;
40122;SDS011;25832;45.490;4.912;2023-02-15T08:34:06;53.92;;;29.70;;
40122;SDS011;25832;45.490;4.912;2023-02-15T08:36:32;50.30;;;29.25;;
40122;SDS011;25832;45.490;4.912;2023-02-15T08:38:59;57.47;;;31.45;;
40122;SDS011;25832;45.490;4.912;2023-02-15T08:41:27;54.22;;;28.33;;
40122;SDS011;25832;45.490;4.912;2023-02-15T08:43:55;51.13;;;27.60;;
40122;SDS011;25832;45.490;4.912;2023-02-15T08:46:24;52.85;;;29.45;;
40122;SDS011;25832;45.490;4.912;2023-02-15T08:48:51;50.75;;;29.02;;
40122;SDS011;25832;45.490;4.912;2023-02-15T08:51:18;55.58;;;29.95;;
40122;SDS011;25832;45.490;4.912;2023-02-15T08:53:46;53.03;;;29.42;;
40122;SDS011;25832;45.490;4.912;2023-02-15T08:56:16;55.90;;;30.08;;
40122;SDS011;25832;45.490;4.912;2023-02-15T08:58:48;56.33;;;29.50;;
40122;SDS011;25832;45.490;4.912;2023-02-15T09:01:15;53.13;;;28.50;;
40122;SDS011;25832;45.490;4.912;2023-02-15T09:03:44;49.25;;;28.95;;
40122;SDS011;25832;45.490;4.912;2023-02-15T09:06:10;50.33;;;26.50;;
40122;SDS011;25832;45.490;4.912;2023-02-15T09:08:36;47.95;;;26.25;;
40122;SDS011;25832;45.490;4.912;2023-02-15T09:11:15;51.88;;;28.25;;
40122;SDS011;25832;45.490;4.912;2023-02-15T09:14:09;54.50;;;29.90;;
40122;SDS011;25832;45.490;4.912;2023-02-15T09:16:39;47.33;;;26.40;;
40122;SDS011;25832;45.490;4.912;2023-02-15T09:19:05;45.88;;;24.90;;
40122;SDS011;25832;45.490;4.912;2023-02-15T09:21:32;47.05;;;25.75;;
40122;SDS011;25832;45.490;4.912;2023-02-15T09:24:00;52.33;;;27.58;;
40122;SDS011;25832;45.490;4.912;2023-02-15T09:26:28;49.47;;;25.60;;
40122;SDS011;25832;45.490;4.912;2023-02-15T09:28:57;52.65;;;27.65;;
40122;SDS011;25832;45.490;4.912;2023-02-15T09:31:27;45.47;;;25.75;;
40122;SDS011;25832;45.490;4.912;2023-02-15T09:33:54;49.80;;;26.33;;
40122;SDS011;25832;45.490;4.912;2023-02-15T09:36:31;48.20;;;25.70;;
40122;SDS011;25832;45.490;4.912;2023-02-15T09:38:59;53.78;;;26.67;;
40122;SDS011;25832;45.490;4.912;2023-02-15T09:41:36;52.78;;;27.75;;
40122;SDS011;25832;45.490;4.912;2023-02-15T09:49:25;48.10;;;26.88;;
40122;SDS011;25832;45.490;4.912;2023-02-15T09:57:08;37.38;;;22.65;;
40122;SDS011;25832;45.490;4.912;2023-02-15T10:23:46;34.53;;;20.95;;
40122;SDS011;25832;45.490;4.912;2023-02-15T10:26:53;92.07;;;44.20;;
40122;SDS011;25832;45.490;4.912;2023-02-15T10:29:36;39.13;;;22.23;;
40122;SDS011;25832;45.490;4.912;2023-02-15T10:51:19;31.58;;;20.05;;
40122;SDS011;25832;45.490;4.912;2023-02-15T10:54:20;28.02;;;16.83;;
40122;SDS011;25832;45.490;4.912;2023-02-15T10:57:04;49.40;;;38.50;;
40122;SDS011;25832;45.490;4.912;2023-02-15T11:02:32;21.75;;;14.40;;
40122;SDS011;25832;45.490;4.912;2023-02-15T11:08:06;20.45;;;15.70;;
40122;SDS011;25832;45.490;4.912;2023-02-15T11:13:17;27.50;;;16.65;;
40122;SDS011;25832;45.490;4.912;2023-02-15T11:18:36;22.70;;;15.27;;
40122;SDS011;25832;45.490;4.912;2023-02-15T11:21:08;20.30;;;12.07;;
40122;SDS011;25832;45.490;4.912;2023-02-15T11:23:36;25.02;;;13.32;;
40122;SDS011;25832;45.490;4.912;2023-02-15T11:26:50;19.88;;;13.18;;
40122;SDS011;25832;45.490;4.912;2023-02-15T11:31:34;20.15;;;13.13;;
40122;SDS011;25832;45.490;4.912;2023-02-15T11:34:15;18.23;;;12.63;;
40122;SDS011;25832;45.490;4.912;2023-02-15T11:36:49;21.70;;;11.65;;
40122;SDS011;25832;45.490;4.912;2023-02-15T11:39:17;18.80;;;11.77;;
40122;SDS011;25832;45.490;4.912;2023-02-15T11:41:46;17.98;;;13.25;;
40122;SDS011;25832;45.490;4.912;2023-02-15T11:44:27;24.52;;;13.30;;
40122;SDS011;25832;45.490;4.912;2023-02-15T11:47:09;18.15;;;12.48;;
40122;SDS011;25832;45.490;4.912;2023-02-15T11:49:36;19.30;;;14.20;;
40122;SDS011;25832;45.490;4.912;2023-02-15T11:52:07;19.80;;;13.23;;
40122;SDS011;25832;45.490;4.912;2023-02-15T11:54:45;19.25;;;13.45;;
40122;SDS011;25832;45.490;4.912;2023-02-15T11:57:17;22.90;;;14.93;;
40122;SDS011;25832;45.490;4.912;2023-02-15T11:59:53;18.92;;;12.98;;
40122;SDS011;25832;45.490;4.912;2023-02-15T12:02:28;15.98;;;11.55;;
40122;SDS011;25832;45.490;4.912;2023-02-15T12:04:57;18.40;;;11.27;;
40122;SDS011;25832;45.490;4.912;2023-02-15T12:10:02;19.27;;;12.13;;
40122;SDS011;25832;45.490;4.912;2023-02-15T12:12:36;19.45;;;13.10;;
40122;SDS011;25832;45.490;4.912;2023-02-15T12:15:03;18.13;;;11.60;;
40122;SDS011;25832;45.490;4.912;2023-02-15T12:17:52;19.48;;;11.52;;
40122;SDS011;25832;45.490;4.912;2023-02-15T12:22:49;17.85;;;11.30;;
40122;SDS011;25832;45.490;4.912;2023-02-15T12:25:42;17.85;;;11.15;;
40122;SDS011;25832;45.490;4.912;2023-02-15T12:28:21;16.27;;;11.20;;
40122;SDS011;25832;45.490;4.912;2023-02-15T12:30:50;16.20;;;11.48;;
40122;SDS011;25832;45.490;4.912;2023-02-15T12:33:31;15.98;;;9.77;;
40122;SDS011;25832;45.490;4.912;2023-02-15T12:38:36;19.33;;;11.88;;
40122;SDS011;25832;45.490;4.912;2023-02-15T12:41:22;21.42;;;13.77;;
40122;SDS011;25832;45.490;4.912;2023-02-15T12:44:35;24.10;;;15.90;;
40122;SDS011;25832;45.490;4.912;2023-02-15T12:46:56;21.63;;;16.33;;
40122;SDS011;25832;45.490;4.912;2023-02-15T12:49:22;35.20;;;27.52;;
40122;SDS011;25832;45.490;4.912;2023-02-15T12:51:52;14.73;;;9.90;;
40122;SDS011;25832;45.490;4.912;2023-02-15T12:56:54;13.10;;;9.82;;
40122;SDS011;25832;45.490;4.912;2023-02-15T12:59:22;16.00;;;10.75;;
40122;SDS011;25832;45.490;4.912;2023-02-15T13:01:48;20.42;;;14.57;;
40122;SDS011;25832;45.490;4.912;2023-02-15T13:04:23;17.63;;;13.20;;
40122;SDS011;25832;45.490;4.912;2023-02-15T13:06:52;18.33;;;11.60;;
40122;SDS011;25832;45.490;4.912;2023-02-15T13:11:56;13.70;;;10.40;;
40122;SDS011;25832;45.490;4.912;2023-02-15T13:14:33;19.73;;;16.05;;
40122;SDS011;25832;45.490;4.912;2023-02-15T13:17:02;16.90;;;11.13;;
40122;SDS011;25832;45.490;4.912;2023-02-15T13:19:33;16.48;;;12.25;;
40122;SDS011;25832;45.490;4.912;2023-02-15T13:22:06;24.13;;;18.35;;
40122;SDS011;25832;45.490;4.912;2023-02-15T13:27:10;42.08;;;37.90;;
40122;SDS011;25832;45.490;4.912;2023-02-15T13:29:42;13.68;;;10.15;;
40122;SDS011;25832;45.490;4.912;2023-02-15T13:34:42;12.63;;;10.18;;
40122;SDS011;25832;45.490;4.912;2023-02-15T14:01:19;8.63;;;5.47;;
40122;SDS011;25832;45.490;4.912;2023-02-15T14:03:57;9.25;;;5.13;;
40122;SDS011;25832;45.490;4.912;2023-02-15T14:09:31;8.20;;;5.65;;
40122;SDS011;25832;45.490;4.912;2023-02-15T14:17:47;7.57;;;5.07;;
40122;SDS011;25832;45.490;4.912;2023-02-15T14:26:26;7.53;;;4.95;;
40122;SDS011;25832;45.490;4.912;2023-02-15T14:29:01;6.82;;;5.00;;
40122;SDS011;25832;45.490;4.912;2023-02-15T14:31:41;8.05;;;4.93;;
40122;SDS011;25832;45.490;4.912;2023-02-15T14:37:06;7.85;;;4.70;;
40122;SDS011;25832;45.490;4.912;2023-02-15T14:39:41;8.02;;;4.13;;
40122;SDS011;25832;45.490;4.912;2023-02-15T14:42:38;5.40;;;3.78;;
40122;SDS011;25832;45.490;4.912;2023-02-15T14:48:28;5.93;;;4.20;;
40122;SDS011;25832;45.490;4.912;2023-02-15T14:50:57;10.70;;;4.15;;
40122;SDS011;25832;45.490;4.912;2023-02-15T14:58:58;4.95;;;3.55;;
40122;SDS011;25832;45.490;4.912;2023-02-15T15:01:26;8.05;;;4.07;;
40122;SDS011;25832;45.490;4.912;2023-02-15T15:03:58;8.23;;;3.97;;
40122;SDS011;25832;45.490;4.912;2023-02-15T15:06:31;5.70;;;4.10;;
40122;SDS011;25832;45.490;4.912;2023-02-15T15:09:20;8.85;;;4.63;;
40122;SDS011;25832;45.490;4.912;2023-02-15T15:11:50;7.85;;;3.40;;
40122;SDS011;25832;45.490;4.912;2023-02-15T15:17:04;5.07;;;3.88;;
40122;SDS011;25832;45.490;4.912;2023-02-15T15:22:30;5.72;;;3.83;;
40122;SDS011;25832;45.490;4.912;2023-02-15T15:24:59;6.85;;;4.05;;
40122;SDS011;25832;45.490;4.912;2023-02-15T15:27:46;6.57;;;3.42;;
40122;SDS011;25832;45.490;4.912;2023-02-15T15:40:41;4.82;;;3.10;;
40122;SDS011;25832;45.490;4.912;2023-02-15T15:46:24;6.75;;;3.28;;
40122;SDS011;25832;45.490;4.912;2023-02-15T15:48:57;4.75;;;3.78;;
40122;SDS011;25832;45.490;4.912;2023-02-15T15:51:34;4.22;;;3.30;;
40122;SDS011;25832;45.490;4.912;2023-02-15T15:54:06;10.98;;;2.80;;
40122;SDS011;25832;45.490;4.912;2023-02-15T15:56:37;4.95;;;3.20;;
40122;SDS011;25832;45.490;4.912;2023-02-15T15:59:04;4.38;;;2.50;;
40122;SDS011;25832;45.490;4.912;2023-02-15T16:01:42;4.45;;;3.03;;
40122;SDS011;25832;45.490;4.912;2023-02-15T16:04:12;4.75;;;2.50;;
40122;SDS011;25832;45.490;4.912;2023-02-15T16:06:47;4.40;;;2.97;;
40122;SDS011;25832;45.490;4.912;2023-02-15T16:09:17;6.00;;;2.75;;
40122;SDS011;25832;45.490;4.912;2023-02-15T16:11:46;5.93;;;3.10;;
40122;SDS011;25832;45.490;4.912;2023-02-15T16:14:37;8.40;;;3.42;;
40122;SDS011;25832;45.490;4.912;2023-02-15T16:17:05;4.68;;;3.25;;
40122;SDS011;25832;45.490;4.912;2023-02-15T16:19:38;5.88;;;3.13;;
40122;SDS011;25832;45.490;4.912;2023-02-15T16:22:11;4.40;;;3.00;;
40122;SDS011;25832;45.490;4.912;2023-02-15T16:25:26;115.78;;;56.95;;
40122;SDS011;25832;45.490;4.912;2023-02-15T16:27:42;14.63;;;8.27;;
40122;SDS011;25832;45.490;4.912;2023-02-15T16:33:07;8.30;;;5.40;;
40122;SDS011;25832;45.490;4.912;2023-02-15T16:35:36;10.82;;;6.82;;
40122;SDS011;25832;45.490;4.912;2023-02-15T16:38:03;20.20;;;12.10;;
40122;SDS011;25832;45.490;4.912;2023-02-15T16:40:35;49.03;;;31.95;;
40122;SDS011;25832;45.490;4.912;2023-02-15T16:43:16;16.88;;;5.05;;
40122;SDS011;25832;45.490;4.912;2023-02-15T16:45:45;6.05;;;3.83;;
40122;SDS011;25832;45.490;4.912;2023-02-15T16:48:14;8.52;;;5.00;;
40122;SDS011;25832;45.490;4.912;2023-02-15T16:50:46;7.63;;;4.10;;
40122;SDS011;25832;45.490;4.912;2023-02-15T16:53:17;5.72;;;3.50;;
40122;SDS011;25832;45.490;4.912;2023-02-15T16:55:57;7.25;;;4.25;;
40122;SDS011;25832;45.490;4.912;2023-02-15T16:58:38;15.68;;;7.70;;
40122;SDS011;25832;45.490;4.912;2023-02-15T17:01:07;8.45;;;4.40;;
40122;SDS011;25832;45.490;4.912;2023-02-15T17:03:36;7.65;;;4.15;;
40122;SDS011;25832;45.490;4.912;2023-02-15T17:06:02;7.40;;;4.28;;
40122;SDS011;25832;45.490;4.912;2023-02-15T17:08:33;6.63;;;4.20;;
40122;SDS011;25832;45.490;4.912;2023-02-15T17:13:41;16.83;;;8.43;;
40122;SDS011;25832;45.490;4.912;2023-02-15T17:16:29;23.90;;;13.48;;
40122;SDS011;25832;45.490;4.912;2023-02-15T17:18:56;8.05;;;5.10;;
40122;SDS011;25832;45.490;4.912;2023-02-15T17:21:25;9.43;;;5.50;;
40122;SDS011;25832;45.490;4.912;2023-02-15T17:24:03;18.70;;;5.70;;
40122;SDS011;25832;45.490;4.912;2023-02-15T17:26:33;16.00;;;9.35;;
40122;SDS011;25832;45.490;4.912;2023-02-15T17:29:01;11.55;;;6.20;;
40122;SDS011;25832;45.490;4.912;2023-02-15T17:31:49;35.92;;;22.70;;
40122;SDS011;25832;45.490;4.912;2023-02-15T17:37:22;9.82;;;5.25;;
40122;SDS011;25832;45.490;4.912;2023-02-15T17:40:20;7.93;;;5.75;;
40122;SDS011;25832;45.490;4.912;2023-02-15T17:42:52;8.23;;;4.88;;
40122;SDS011;25832;45.490;4.912;2023-02-15T17:45:19;6.55;;;5.03;;
40122;SDS011;25832;45.490;4.912;2023-02-15T17:47:46;14.43;;;4.95;;
40122;SDS011;25832;45.490;4.912;2023-02-15T17:50:23;7.90;;;5.30;;
40122;SDS011;25832;45.490;4.912;2023-02-15T17:52:51;7.53;;;5.22;;
40122;SDS011;25832;45.490;4.912;2023-02-15T17:55:19;8.50;;;5.22;;
40122;SDS011;25832;45.490;4.912;2023-02-15T17:58:16;11.63;;;6.15;;
40122;SDS011;25832;45.490;4.912;2023-02-15T18:00:47;13.98;;;7.10;;
40122;SDS011;25832;45.490;4.912;2023-02-15T18:06:24;15.23;;;8.20;;
40122;SDS011;25832;45.490;4.912;2023-02-15T18:09:12;43.20;;;20.25;;
40122;SDS011;25832;45.490;4.912;2023-02-15T18:11:58;22.45;;;13.15;;
40122;SDS011;25832;45.490;4.912;2023-02-15T18:14:24;17.88;;;8.90;;
40122;SDS011;25832;45.490;4.912;2023-02-15T18:16:50;11.35;;;6.20;;
40122;SDS011;25832;45.490;4.912;2023-02-15T18:19:19;9.40;;;5.15;;
40122;SDS011;25832;45.490;4.912;2023-02-15T18:21:48;9.48;;;5.97;;